createdAt,value
2019-03-21T00:01:08.865Z,26.60
2019-03-21T00:03:40.418Z,26.70
2019-03-21T00:06:13.559Z,29.17
2019-03-21T00:08:45.336Z,28.87
2019-03-21T00:11:51.826Z,29.50
2019-03-21T00:14:45.325Z,30.63
2019-03-21T00:17:18.043Z,29.63
2019-03-21T00:19:49.557Z,27.93
2019-03-21T00:22:21.102Z,27.00
2019-03-21T00:24:54.092Z,32.27
2019-03-21T00:27:25.565Z,34.57
2019-03-21T00:29:57.059Z,32.43
2019-03-21T00:32:29.732Z,30.43
2019-03-21T00:35:04.331Z,35.33
2019-03-21T00:37:35.829Z,32.20
2019-03-21T00:40:09.786Z,36.37
2019-03-21T00:42:41.295Z,35.27
2019-03-21T00:45:14.800Z,36.27
2019-03-21T00:47:46.647Z,36.70
2019-03-21T00:50:19.377Z,39.67
2019-03-21T00:52:52.465Z,32.30
2019-03-21T00:55:24.457Z,36.90
2019-03-21T00:57:58.539Z,34.90
2019-03-21T01:00:32.637Z,35.23
2019-03-21T01:03:04.356Z,31.53
2019-03-21T01:05:35.861Z,35.70
2019-03-21T01:08:07.414Z,38.67
2019-03-21T01:10:38.900Z,33.57
2019-03-21T01:13:10.313Z,33.90
2019-03-21T01:15:41.894Z,34.30
2019-03-21T01:18:13.525Z,28.47
2019-03-21T01:20:45.123Z,34.37
2019-03-21T01:23:16.547Z,33.60
2019-03-21T01:25:50.157Z,33.73
2019-03-21T01:28:22.209Z,33.37
2019-03-21T01:30:53.799Z,33.37
2019-03-21T01:33:25.391Z,35.40
2019-03-21T01:35:56.856Z,35.23
2019-03-21T01:38:28.354Z,31.57
2019-03-21T01:40:59.942Z,33.90
2019-03-21T01:43:31.568Z,27.93
2019-03-21T01:46:03.595Z,30.47
2019-03-21T01:48:35.148Z,27.87
2019-03-21T01:51:06.662Z,34.47
2019-03-21T01:53:38.121Z,35.13
2019-03-21T01:56:09.641Z,33.93
2019-03-21T01:58:42.351Z,32.53
2019-03-21T02:01:13.957Z,33.93
2019-03-21T02:03:45.388Z,32.20
2019-03-21T02:06:16.992Z,31.73
2019-03-21T02:08:48.454Z,28.50
2019-03-21T02:11:20.931Z,26.57
2019-03-21T02:13:52.483Z,31.77
2019-03-21T02:16:25.154Z,27.80
2019-03-21T02:18:56.619Z,28.10
2019-03-21T02:21:28.264Z,28.90
2019-03-21T02:23:59.716Z,28.27
2019-03-21T02:26:31.395Z,33.50
2019-03-21T02:29:02.929Z,31.90
2019-03-21T02:31:34.481Z,30.83
2019-03-21T02:34:06.339Z,30.93
2019-03-21T02:36:37.933Z,33.70
2019-03-21T02:39:09.448Z,30.10
2019-03-21T02:41:41.235Z,35.17
2019-03-21T02:44:12.882Z,27.10
2019-03-21T02:46:44.674Z,27.50
2019-03-21T02:49:16.121Z,36.10
2019-03-21T02:51:47.774Z,30.23
2019-03-21T02:54:19.203Z,27.63
2019-03-21T02:56:52.379Z,25.77
2019-03-21T02:59:23.926Z,28.13
2019-03-21T03:01:55.505Z,32.13
2019-03-21T03:04:26.927Z,27.90
2019-03-21T03:06:59.820Z,33.43
2019-03-21T03:09:33.049Z,30.63
2019-03-21T03:12:04.911Z,27.80
2019-03-21T03:14:36.450Z,29.97
2019-03-21T03:17:08.190Z,32.13
2019-03-21T03:19:39.725Z,28.20
2019-03-21T03:22:11.314Z,29.87
2019-03-21T03:24:42.856Z,34.60
2019-03-21T03:27:14.457Z,30.40
2019-03-21T03:29:45.948Z,31.47
2019-03-21T03:32:17.528Z,30.47
2019-03-21T03:34:49.528Z,34.43
2019-03-21T03:37:21.302Z,30.63
2019-03-21T03:39:53.262Z,26.10
2019-03-21T03:42:24.828Z,32.03
2019-03-21T03:44:56.285Z,30.70
2019-03-21T03:47:27.756Z,27.60
2019-03-21T03:49:59.214Z,29.43
2019-03-21T03:52:31.918Z,29.30
2019-03-21T03:55:03.662Z,27.23
2019-03-21T03:57:36.437Z,33.93
2019-03-21T04:00:09.314Z,33.77
2019-03-21T04:02:42.089Z,29.27
2019-03-21T04:05:13.718Z,26.47
2019-03-21T04:07:45.323Z,29.10
2019-03-21T04:10:22.488Z,32.07
2019-03-21T04:12:54.045Z,33.63
2019-03-21T04:15:25.860Z,31.87
2019-03-21T04:17:57.395Z,35.67
2019-03-21T04:20:30.707Z,28.83
2019-03-21T04:23:03.621Z,36.30
2019-03-21T04:25:58.813Z,34.47
2019-03-21T04:28:31.044Z,29.40
2019-03-21T04:31:03.216Z,28.30
2019-03-21T04:33:35.450Z,37.57
2019-03-21T04:36:07.291Z,33.43
2019-03-21T04:38:38.894Z,36.53
2019-03-21T04:41:11.038Z,33.43
2019-03-21T04:43:42.765Z,29.23
2019-03-21T04:46:14.424Z,25.97
2019-03-21T04:48:45.869Z,27.20
2019-03-21T04:51:17.810Z,31.03
2019-03-21T04:53:49.409Z,29.80
2019-03-21T04:56:20.884Z,28.53
2019-03-21T04:58:52.397Z,26.97
2019-03-21T05:01:23.886Z,33.40
2019-03-21T05:03:55.458Z,33.93
2019-03-21T05:06:26.989Z,30.67
2019-03-21T05:08:58.619Z,34.50
2019-03-21T05:11:30.811Z,28.63
2019-03-21T05:14:02.590Z,31.33
2019-03-21T05:16:34.158Z,37.40
2019-03-21T05:19:07.251Z,29.77
2019-03-21T05:21:38.887Z,34.57
2019-03-21T05:24:11.046Z,33.23
2019-03-21T05:26:42.801Z,37.20
2019-03-21T05:29:15.430Z,36.40
2019-03-21T05:31:46.900Z,39.23
2019-03-21T05:34:18.464Z,31.97
2019-03-21T05:36:50.720Z,42.27
2019-03-21T05:39:22.444Z,30.17
2019-03-21T05:41:53.946Z,39.47
2019-03-21T05:44:30.925Z,42.27
2019-03-21T05:47:03.768Z,38.40
2019-03-21T05:49:35.260Z,29.17
2019-03-21T05:52:08.273Z,41.20
2019-03-21T05:54:41.159Z,36.33
2019-03-21T05:57:12.861Z,38.93
2019-03-21T05:59:44.440Z,40.03
2019-03-21T06:02:16.552Z,37.97
2019-03-21T06:04:48.864Z,33.60
2019-03-21T06:07:39.686Z,34.30
2019-03-21T06:10:13.277Z,34.97
2019-03-21T06:12:43.450Z,33.70
2019-03-21T06:15:17.611Z,39.47
2019-03-21T06:18:09.475Z,33.90
2019-03-21T06:21:04.309Z,27.07
2019-03-21T06:23:50.310Z,32.53
2019-03-21T06:26:54.784Z,32.47
2019-03-21T06:29:26.844Z,26.03
2019-03-21T06:31:58.329Z,28.97
2019-03-21T06:34:30.416Z,35.00
2019-03-21T06:37:02.110Z,27.87
2019-03-21T06:39:34.229Z,20.90
2019-03-21T06:42:06.439Z,28.93
2019-03-21T06:44:38.607Z,32.17
2019-03-21T06:47:11.406Z,23.70
2019-03-21T06:49:43.574Z,26.40
2019-03-21T06:52:15.152Z,26.83
2019-03-21T06:54:47.272Z,24.47
2019-03-21T06:57:19.621Z,23.03
2019-03-21T06:59:51.256Z,20.57
2019-03-21T07:02:23.948Z,27.53
2019-03-21T07:04:55.981Z,23.57
2019-03-21T07:07:27.784Z,22.57
2019-03-21T07:09:59.903Z,25.70
2019-03-21T07:12:32.270Z,23.53
2019-03-21T07:15:04.552Z,26.00
2019-03-21T07:17:36.909Z,24.97
2019-03-21T07:20:10.175Z,24.23
2019-03-21T07:22:42.561Z,24.67
2019-03-21T07:25:14.740Z,21.33
2019-03-21T07:27:46.836Z,16.27
2019-03-21T07:30:19.102Z,17.60
2019-03-21T07:32:51.366Z,21.60
2019-03-21T07:35:24.434Z,24.80
2019-03-21T07:37:56.039Z,15.77
2019-03-21T07:40:28.096Z,12.93
2019-03-21T07:43:00.193Z,19.40
2019-03-21T07:45:32.416Z,21.53
2019-03-21T07:48:05.364Z,18.40
2019-03-21T07:50:37.066Z,18.93
2019-03-21T07:53:09.338Z,14.63
2019-03-21T07:55:41.570Z,17.73
2019-03-21T07:58:14.131Z,14.07
2019-03-21T08:00:46.176Z,13.70
2019-03-21T08:03:18.489Z,14.50
2019-03-21T08:05:50.682Z,17.53
2019-03-21T08:08:23.004Z,13.93
2019-03-21T08:10:55.529Z,15.57
2019-03-21T08:13:27.729Z,16.70
2019-03-21T08:16:01.283Z,14.27
2019-03-21T08:18:33.545Z,11.87
2019-03-21T08:21:05.545Z,13.10
2019-03-21T08:23:38.306Z,12.73
2019-03-21T08:26:10.539Z,9.80
2019-03-21T08:28:42.849Z,11.57
2019-03-21T08:31:18.638Z,12.93
2019-03-21T08:33:52.003Z,14.87
2019-03-21T08:36:24.332Z,12.90
2019-03-21T08:38:56.807Z,14.37
2019-03-21T08:41:29.437Z,17.37
2019-03-21T08:44:02.173Z,16.73
2019-03-21T08:46:34.360Z,15.90
2019-03-21T08:49:06.601Z,16.63
2019-03-21T08:51:39.323Z,14.77
2019-03-21T08:54:11.371Z,11.23
2019-03-21T08:56:43.555Z,13.50
2019-03-21T08:59:19.903Z,12.10
2019-03-21T09:01:52.618Z,15.60
2019-03-21T09:04:25.229Z,14.20
2019-03-21T09:07:00.852Z,14.63
2019-03-21T09:09:35.616Z,16.23
2019-03-21T09:12:08.344Z,17.30
2019-03-21T09:14:41.107Z,15.53
2019-03-21T09:17:13.756Z,16.83
2019-03-21T09:19:46.047Z,18.47
2019-03-21T09:22:18.197Z,15.13
2019-03-21T09:24:50.427Z,16.80
2019-03-21T09:27:22.561Z,17.60
2019-03-21T09:29:54.348Z,14.00
2019-03-21T09:32:26.494Z,16.33
2019-03-21T09:34:58.873Z,15.00
2019-03-21T09:37:31.240Z,22.93
2019-03-21T09:40:03.453Z,25.40
2019-03-21T09:42:35.005Z,19.67
2019-03-21T09:45:09.215Z,20.70
2019-03-21T09:47:41.446Z,15.67
2019-03-21T09:50:17.134Z,15.60
2019-03-21T09:52:49.399Z,18.17
2019-03-21T09:55:21.759Z,13.77
2019-03-21T09:57:54.301Z,13.13
2019-03-21T10:00:34.097Z,15.90
2019-03-21T10:03:06.422Z,12.80
2019-03-21T10:05:38.604Z,13.90
2019-03-21T10:08:10.996Z,13.83
2019-03-21T10:10:43.240Z,11.70
2019-03-21T10:13:15.355Z,13.80
2019-03-21T10:15:47.592Z,14.87
2019-03-21T10:18:19.452Z,14.03
2019-03-21T10:20:51.292Z,15.37
2019-03-21T10:23:23.407Z,14.60
2019-03-21T10:25:55.119Z,16.40
2019-03-21T10:28:26.883Z,14.37
2019-03-21T10:30:59.079Z,15.70
2019-03-21T10:33:30.822Z,17.20
2019-03-21T10:36:02.884Z,17.63
2019-03-21T10:38:34.523Z,16.33
2019-03-21T10:41:06.660Z,18.07
2019-03-21T10:43:38.881Z,17.40
2019-03-21T10:46:11.200Z,19.97
2019-03-21T10:48:43.458Z,18.33
2019-03-21T10:51:15.710Z,16.93
2019-03-21T10:53:47.802Z,19.63
2019-03-21T10:56:20.562Z,15.93
2019-03-21T10:58:52.773Z,16.13
2019-03-21T11:01:25.033Z,16.63
2019-03-21T11:03:57.145Z,15.90
2019-03-21T11:06:29.551Z,19.77
2019-03-21T11:09:01.744Z,16.67
2019-03-21T11:11:35.554Z,20.23
2019-03-21T11:14:07.353Z,15.73
2019-03-21T11:16:39.040Z,16.67
2019-03-21T11:19:11.227Z,18.73
2019-03-21T11:21:44.459Z,14.17
2019-03-21T11:24:17.751Z,20.50
2019-03-21T11:26:50.686Z,18.47
2019-03-21T11:29:22.738Z,17.27
2019-03-21T11:31:54.741Z,17.83
2019-03-21T11:34:26.918Z,18.83
2019-03-21T11:37:01.850Z,19.13
2019-03-21T11:39:34.069Z,15.97
2019-03-21T11:42:07.002Z,16.13
2019-03-21T11:44:39.649Z,19.00
2019-03-21T11:47:11.876Z,17.60
2019-03-21T11:49:44.039Z,15.60
2019-03-21T11:52:18.384Z,13.43
2019-03-21T11:54:50.071Z,18.33
2019-03-21T11:57:22.386Z,15.77
2019-03-21T11:59:54.517Z,16.97
2019-03-21T12:02:27.615Z,16.10
2019-03-21T12:04:59.692Z,16.10
2019-03-21T12:07:31.895Z,21.13
2019-03-21T12:10:03.888Z,20.03
2019-03-21T12:12:36.608Z,18.17
2019-03-21T12:15:08.576Z,18.63
2019-03-21T12:17:40.891Z,24.23
2019-03-21T12:20:13.397Z,21.23
2019-03-21T12:22:48.434Z,23.07
2019-03-21T12:25:20.507Z,23.47
2019-03-21T12:27:52.734Z,24.17
2019-03-21T12:30:32.485Z,26.87
2019-03-21T12:33:04.244Z,23.60
2019-03-21T12:35:36.326Z,28.13
2019-03-21T12:38:08.688Z,27.07
2019-03-21T12:40:40.991Z,26.73
2019-03-21T12:43:13.162Z,30.93
2019-03-21T12:45:45.637Z,36.93
2019-03-21T12:48:18.010Z,35.93
2019-03-21T12:50:49.779Z,32.37
2019-03-21T12:53:21.914Z,31.67
2019-03-21T12:55:53.997Z,43.47
2019-03-21T12:58:26.275Z,39.93
2019-03-21T13:00:58.565Z,40.07
2019-03-21T13:03:30.831Z,40.23
2019-03-21T13:06:03.049Z,37.20
2019-03-21T13:08:37.117Z,41.17
2019-03-21T13:11:09.679Z,41.63
2019-03-21T13:13:41.312Z,40.33
2019-03-21T13:16:13.248Z,40.43
2019-03-21T13:18:45.051Z,38.13
2019-03-21T13:21:17.137Z,39.63
2019-03-21T13:23:49.198Z,38.67
2019-03-21T13:26:21.382Z,33.70
2019-03-21T13:28:53.637Z,35.80
2019-03-21T13:31:25.778Z,36.07
2019-03-21T13:33:58.257Z,34.57
2019-03-21T13:36:30.477Z,30.47
2019-03-21T13:39:04.630Z,31.77
2019-03-21T13:41:37.015Z,33.03
2019-03-21T13:44:08.646Z,31.93
2019-03-21T13:46:40.742Z,32.57
2019-03-21T13:49:12.980Z,33.57
2019-03-21T13:51:44.936Z,24.47
2019-03-21T13:54:17.021Z,29.93
2019-03-21T13:56:48.675Z,27.73
2019-03-21T13:59:20.845Z,31.17
2019-03-21T14:01:52.347Z,27.90
2019-03-21T14:04:24.570Z,31.23
2019-03-21T14:06:56.718Z,32.03
2019-03-21T14:09:28.367Z,31.50
2019-03-21T14:11:59.884Z,34.87
2019-03-21T14:14:31.925Z,37.67
2019-03-21T14:17:03.665Z,38.27
2019-03-21T14:19:35.376Z,35.90
2019-03-21T14:22:07.552Z,37.47
2019-03-21T14:24:39.740Z,36.30
2019-03-21T14:27:12.356Z,33.60
2019-03-21T14:29:44.152Z,37.50
2019-03-21T14:32:16.024Z,37.47
2019-03-21T14:34:48.281Z,37.03
2019-03-21T14:37:19.860Z,37.07
2019-03-21T14:39:52.594Z,36.53
2019-03-21T14:42:24.870Z,35.53
2019-03-21T14:44:57.105Z,37.17
2019-03-21T14:47:36.019Z,33.57
2019-03-21T14:50:02.005Z,33.07
2019-03-21T14:52:34.138Z,33.00
2019-03-21T14:55:06.994Z,33.43
2019-03-21T14:57:38.562Z,32.13
2019-03-21T15:00:12.394Z,34.93
2019-03-21T15:02:44.436Z,37.93
2019-03-21T15:05:16.917Z,35.90
2019-03-21T15:07:48.617Z,35.43
2019-03-21T15:10:20.766Z,38.33
2019-03-21T15:12:53.015Z,35.70
2019-03-21T15:15:25.230Z,41.27
2019-03-21T15:17:59.081Z,43.37
2019-03-21T15:20:32.345Z,50.47
2019-03-21T15:23:05.255Z,44.67
2019-03-21T15:25:37.585Z,43.63
2019-03-21T15:28:09.664Z,44.70
2019-03-21T15:30:41.438Z,47.87
2019-03-21T15:33:13.584Z,45.97
2019-03-21T15:35:45.601Z,45.63
2019-03-21T15:38:17.786Z,43.60
2019-03-21T15:40:49.961Z,48.37
2019-03-21T15:43:21.975Z,47.10
2019-03-21T15:45:57.366Z,46.93
2019-03-21T15:48:29.032Z,49.97
2019-03-21T15:51:04.883Z,46.63
2019-03-21T15:53:34.949Z,51.93
2019-03-21T15:56:07.359Z,43.37
2019-03-21T15:58:40.243Z,49.60
2019-03-21T16:01:12.908Z,50.47
2019-03-21T16:03:45.835Z,49.53
2019-03-21T16:06:18.016Z,50.30
2019-03-21T16:08:51.176Z,49.73
2019-03-21T16:11:23.117Z,49.00
2019-03-21T16:13:56.137Z,50.93
2019-03-21T16:16:31.109Z,48.67
2019-03-21T16:19:03.776Z,49.43
2019-03-21T16:21:35.935Z,50.87
2019-03-21T16:24:08.124Z,50.70
2019-03-21T16:26:40.280Z,49.20
2019-03-21T16:29:12.492Z,48.20
2019-03-21T16:31:44.748Z,48.27
2019-03-21T16:34:16.485Z,43.47
2019-03-21T16:36:48.137Z,47.67
2019-03-21T16:39:22.923Z,49.60
2019-03-21T16:42:00.094Z,44.20
2019-03-21T16:44:31.948Z,47.37
2019-03-21T16:47:03.441Z,45.63
2019-03-21T16:49:34.948Z,40.90
2019-03-21T16:52:38.130Z,42.17
2019-03-21T16:55:42.652Z,45.00
2019-03-21T16:58:45.627Z,44.77
2019-03-21T17:01:44.211Z,45.97
2019-03-21T17:04:39.660Z,45.40
2019-03-21T17:07:47.269Z,46.57
2019-03-21T17:10:47.967Z,47.77
2019-03-21T17:13:51.244Z,47.70
2019-03-21T17:16:49.225Z,43.00
2019-03-21T17:19:58.969Z,45.03
2019-03-21T17:23:00.556Z,52.03
2019-03-21T17:26:01.174Z,56.53
2019-03-21T17:29:01.776Z,56.33
2019-03-21T17:31:57.753Z,47.10
2019-03-21T17:34:57.223Z,49.27
2019-03-21T17:37:59.740Z,51.57
2019-03-21T17:41:02.884Z,54.93
2019-03-21T17:44:03.270Z,50.43
2019-03-21T17:47:10.982Z,54.83
2019-03-21T17:50:10.889Z,52.23
2019-03-21T17:53:12.993Z,50.57
2019-03-21T17:56:09.746Z,50.93
2019-03-21T17:59:10.915Z,49.20
2019-03-21T18:02:05.524Z,53.93
2019-03-21T18:04:55.590Z,50.80
2019-03-21T18:08:04.993Z,55.70
2019-03-21T18:11:23.092Z,57.80
2019-03-21T18:14:27.564Z,58.97
2019-03-21T18:17:23.228Z,54.80
2019-03-21T18:20:21.970Z,53.07
2019-03-21T18:23:21.784Z,51.60
2019-03-21T18:26:18.695Z,53.27
2019-03-21T18:29:16.403Z,54.33
2019-03-21T18:31:50.402Z,52.33
2019-03-21T18:34:22.109Z,50.77
2019-03-21T18:36:53.927Z,51.83
2019-03-21T18:39:25.543Z,53.20
2019-03-21T18:41:57.251Z,54.20
2019-03-21T18:44:29.864Z,50.27
2019-03-21T18:47:01.567Z,54.23
2019-03-21T18:49:33.602Z,57.10
2019-03-21T18:52:05.586Z,55.13
2019-03-21T18:54:37.232Z,58.23
2019-03-21T18:57:08.749Z,58.60
2019-03-21T18:59:40.855Z,59.57
2019-03-21T19:02:13.237Z,56.87
2019-03-21T19:04:44.911Z,60.47
2019-03-21T19:07:16.746Z,60.83
2019-03-21T19:09:48.347Z,66.80
2019-03-21T19:12:20.419Z,64.27
2019-03-21T19:14:52.201Z,74.70
2019-03-21T19:17:23.797Z,74.77
2019-03-21T19:19:55.989Z,71.03
2019-03-21T19:22:28.163Z,74.53
2019-03-21T19:25:00.400Z,82.20
2019-03-21T19:27:32.171Z,70.77
2019-03-21T19:30:03.946Z,71.80
2019-03-21T19:32:35.699Z,81.27
2019-03-21T19:35:08.408Z,76.50
2019-03-21T19:37:40.053Z,77.73
2019-03-21T19:40:12.920Z,79.77
2019-03-21T19:42:44.768Z,81.37
2019-03-21T19:45:17.462Z,78.37
2019-03-21T19:47:49.753Z,73.23
2019-03-21T19:50:22.651Z,73.33
2019-03-21T19:52:55.010Z,73.90
2019-03-21T19:55:31.078Z,75.70
2019-03-21T19:58:00.757Z,67.13
2019-03-21T20:00:32.464Z,60.90
2019-03-21T20:03:04.373Z,65.47
2019-03-21T20:05:36.584Z,63.17
2019-03-21T20:08:08.730Z,55.50
2019-03-21T20:10:41.044Z,44.53
2019-03-21T20:13:13.383Z,57.20
2019-03-21T20:15:45.917Z,55.37
2019-03-21T20:18:18.243Z,63.93
2019-03-21T20:20:50.464Z,79.33
2019-03-21T20:23:22.899Z,63.10
2019-03-21T20:25:55.429Z,84.37
2019-03-21T20:28:27.171Z,67.10
2019-03-21T20:30:58.857Z,82.17
2019-03-21T20:33:31.055Z,81.40
2019-03-21T20:36:02.771Z,71.00
2019-03-21T20:38:34.726Z,85.50
2019-03-21T20:41:07.136Z,65.37
2019-03-21T20:43:39.386Z,59.67
2019-03-21T20:46:11.647Z,60.37
2019-03-21T20:48:41.052Z,62.80
2019-03-21T20:51:13.270Z,60.43
2019-03-21T20:53:46.526Z,58.60
2019-03-21T20:56:19.391Z,61.20
2019-03-21T20:58:53.498Z,55.27
2019-03-21T21:01:24.286Z,56.77
2019-03-21T21:03:56.061Z,47.93
2019-03-21T21:06:27.980Z,49.70
2019-03-21T21:08:59.518Z,52.13
2019-03-21T21:11:31.185Z,53.10
2019-03-21T21:14:04.376Z,55.80
2019-03-21T21:16:36.208Z,49.53
2019-03-21T21:19:08.367Z,53.40
2019-03-21T21:21:40.639Z,55.60
2019-03-21T21:24:12.548Z,52.47
2019-03-21T21:26:44.280Z,54.70
2019-03-21T21:29:15.749Z,56.50
2019-03-21T21:31:47.379Z,55.27
2019-03-21T21:34:18.859Z,52.57
2019-03-21T21:36:50.595Z,61.00
2019-03-21T21:39:25.097Z,59.40
2019-03-21T21:41:56.797Z,57.53
2019-03-21T21:44:28.557Z,61.03
2019-03-21T21:47:00.247Z,57.37
2019-03-21T21:49:34.769Z,59.00
2019-03-21T21:52:06.446Z,59.00
2019-03-21T21:54:38.517Z,63.77
2019-03-21T21:57:10.837Z,66.27
2019-03-21T21:59:42.467Z,65.43
2019-03-21T22:02:14.334Z,58.10
2019-03-21T22:04:47.005Z,66.97
2019-03-21T22:07:18.521Z,67.13
2019-03-21T22:09:50.520Z,73.77
2019-03-21T22:12:22.276Z,65.27
2019-03-21T22:14:53.913Z,68.23
2019-03-21T22:17:26.168Z,73.27
2019-03-21T22:19:58.341Z,73.30
2019-03-21T22:22:30.231Z,72.57
2019-03-21T22:25:01.736Z,73.27
2019-03-21T22:27:33.366Z,75.20
2019-03-21T22:30:05.125Z,74.53
2019-03-21T22:32:36.859Z,68.97
2019-03-21T22:35:08.765Z,85.40
2019-03-21T22:37:40.464Z,67.93
2019-03-21T22:40:12.137Z,66.53
2019-03-21T22:42:43.922Z,73.47
2019-03-21T22:45:15.585Z,70.80
2019-03-21T22:47:50.173Z,71.83
2019-03-21T22:50:20.495Z,79.73
2019-03-21T22:52:52.054Z,80.23
2019-03-21T22:55:23.597Z,75.40
2019-03-21T22:57:55.204Z,73.90
2019-03-21T23:00:34.978Z,85.03
2019-03-21T23:03:08.349Z,80.17
2019-03-21T23:05:40.736Z,80.93
2019-03-21T23:08:12.812Z,77.33
2019-03-21T23:10:45.226Z,77.33
2019-03-21T23:13:17.192Z,86.13
2019-03-21T23:15:48.829Z,87.77
2019-03-21T23:18:20.536Z,75.13
2019-03-21T23:20:52.578Z,82.30
2019-03-21T23:23:24.813Z,90.20
2019-03-21T23:25:58.039Z,84.23
2019-03-21T23:28:29.912Z,74.53
2019-03-21T23:31:01.754Z,75.70
2019-03-21T23:33:33.353Z,69.33
2019-03-21T23:36:05.166Z,78.40
2019-03-21T23:38:36.717Z,71.07
2019-03-21T23:41:08.450Z,68.13
2019-03-21T23:43:40.410Z,68.83
2019-03-21T23:46:12.626Z,65.40
2019-03-21T23:48:44.888Z,57.43
2019-03-21T23:51:17.130Z,56.60
2019-03-21T23:53:48.917Z,60.90
2019-03-21T23:56:20.342Z,61.53
2019-03-21T23:58:51.971Z,54.43
